sensor_id;sensor_type;location;lat;lon;timestamp;P1;durP1;ratioP1;P2;durP2;ratioP2
13319;SDS011;59599;47.608;12.190;2022-09-12T04:01:45;5.43;;;2.10;;
13319;SDS011;59599;47.608;12.190;2022-09-12T04:04:11;2.30;;;2.00;;
13319;SDS011;59599;47.608;12.190;2022-09-12T04:06:37;4.97;;;2.23;;
13319;SDS011;59599;47.608;12.190;2022-09-12T04:09:03;2.50;;;2.30;;
13319;SDS011;59599;47.608;12.190;2022-09-12T04:11:29;2.27;;;2.07;;
13319;SDS011;59599;47.608;12.190;2022-09-12T04:13:56;2.50;;;2.20;;
13319;SDS011;59599;47.608;12.190;2022-09-12T04:16:21;6.70;;;2.20;;
13319;SDS011;59599;47.608;12.190;2022-09-12T04:18:47;3.63;;;2.30;;
13319;SDS011;59599;47.608;12.190;2022-09-12T04:21:14;3.70;;;2.20;;
13319;SDS011;59599;47.608;12.190;2022-09-12T04:23:42;2.80;;;2.13;;
13319;SDS011;59599;47.608;12.190;2022-09-12T04:26:08;2.40;;;2.20;;
13319;SDS011;59599;47.608;12.190;2022-09-12T04:28:35;4.10;;;2.50;;
13319;SDS011;59599;47.608;12.190;2022-09-12T04:31:02;2.60;;;2.40;;
13319;SDS011;59599;47.608;12.190;2022-09-12T04:33:30;6.80;;;2.87;;
13319;SDS011;59599;47.608;12.190;2022-09-12T04:36:01;3.30;;;2.77;;
13319;SDS011;59599;47.608;12.190;2022-09-12T04:38:32;5.00;;;2.30;;
13319;SDS011;59599;47.608;12.190;2022-09-12T04:40:58;2.37;;;2.17;;
13319;SDS011;59599;47.608;12.190;2022-09-12T04:43:24;3.20;;;2.20;;
13319;SDS011;59599;47.608;12.190;2022-09-12T04:45:50;6.00;;;4.90;;
13319;SDS011;59599;47.608;12.190;2022-09-12T04:48:16;3.57;;;3.20;;
13319;SDS011;59599;47.608;12.190;2022-09-12T04:50:42;2.40;;;2.20;;
13319;SDS011;59599;47.608;12.190;2022-09-12T04:53:07;2.63;;;2.10;;
13319;SDS011;59599;47.608;12.190;2022-09-12T04:55:33;2.37;;;2.10;;
13319;SDS011;59599;47.608;12.190;2022-09-12T04:57:59;6.00;;;2.30;;
13319;SDS011;59599;47.608;12.190;2022-09-12T05:00:26;3.27;;;2.10;;
13319;SDS011;59599;47.608;12.190;2022-09-12T05:02:51;3.63;;;2.83;;
13319;SDS011;59599;47.608;12.190;2022-09-12T05:05:17;2.70;;;2.50;;
13319;SDS011;59599;47.608;12.190;2022-09-12T05:07:43;2.40;;;2.20;;
13319;SDS011;59599;47.608;12.190;2022-09-12T05:10:08;3.43;;;2.20;;
13319;SDS011;59599;47.608;12.190;2022-09-12T05:12:34;2.73;;;2.10;;
13319;SDS011;59599;47.608;12.190;2022-09-12T05:15:00;9.23;;;2.50;;
13319;SDS011;59599;47.608;12.190;2022-09-12T05:17:27;5.87;;;2.33;;
13319;SDS011;59599;47.608;12.190;2022-09-12T05:19:53;4.80;;;2.50;;
13319;SDS011;59599;47.608;12.190;2022-09-12T05:22:19;2.33;;;2.13;;
13319;SDS011;59599;47.608;12.190;2022-09-12T05:24:45;7.10;;;2.00;;
13319;SDS011;59599;47.608;12.190;2022-09-12T05:27:12;3.93;;;2.60;;
13319;SDS011;59599;47.608;12.190;2022-09-12T05:29:38;3.07;;;2.33;;
13319;SDS011;59599;47.608;12.190;2022-09-12T05:32:04;2.77;;;2.10;;
13319;SDS011;59599;47.608;12.190;2022-09-12T05:34:30;3.00;;;2.40;;
13319;SDS011;59599;47.608;12.190;2022-09-12T05:36:55;3.53;;;3.23;;
13319;SDS011;59599;47.608;12.190;2022-09-12T05:39:22;4.13;;;2.20;;
13319;SDS011;59599;47.608;12.190;2022-09-12T05:41:48;5.07;;;2.30;;
13319;SDS011;59599;47.608;12.190;2022-09-12T05:44:14;2.87;;;2.23;;
13319;SDS011;59599;47.608;12.190;2022-09-12T05:46:43;5.23;;;2.30;;
13319;SDS011;59599;47.608;12.190;2022-09-12T05:49:11;5.50;;;1.93;;
13319;SDS011;59599;47.608;12.190;2022-09-12T05:51:38;2.13;;;1.93;;
13319;SDS011;59599;47.608;12.190;2022-09-12T05:54:06;5.50;;;2.07;;
13319;SDS011;59599;47.608;12.190;2022-09-12T05:56:36;2.00;;;1.83;;
13319;SDS011;59599;47.608;12.190;2022-09-12T05:59:04;2.20;;;1.97;;
13319;SDS011;59599;47.608;12.190;2022-09-12T06:01:32;6.97;;;2.27;;
13319;SDS011;59599;47.608;12.190;2022-09-12T06:04:00;2.50;;;2.30;;
13319;SDS011;59599;47.608;12.190;2022-09-12T06:06:28;4.53;;;2.00;;
13319;SDS011;59599;47.608;12.190;2022-09-12T06:08:56;2.67;;;2.00;;
13319;SDS011;59599;47.608;12.190;2022-09-12T06:11:24;2.87;;;1.90;;
13319;SDS011;59599;47.608;12.190;2022-09-12T06:13:51;2.37;;;2.17;;
13319;SDS011;59599;47.608;12.190;2022-09-12T06:16:18;5.20;;;2.23;;
13319;SDS011;59599;47.608;12.190;2022-09-12T06:18:49;3.33;;;2.00;;
13319;SDS011;59599;47.608;12.190;2022-09-12T06:21:18;2.20;;;2.00;;
13319;SDS011;59599;47.608;12.190;2022-09-12T06:23:45;5.73;;;2.17;;
13319;SDS011;59599;47.608;12.190;2022-09-12T06:26:11;5.37;;;1.80;;
13319;SDS011;59599;47.608;12.190;2022-09-12T06:28:38;2.43;;;1.80;;
13319;SDS011;59599;47.608;12.190;2022-09-12T06:31:15;3.40;;;2.17;;
13319;SDS011;59599;47.608;12.190;2022-09-12T06:33:43;2.67;;;2.03;;
13319;SDS011;59599;47.608;12.190;2022-09-12T06:36:12;3.57;;;2.00;;
13319;SDS011;59599;47.608;12.190;2022-09-12T06:38:41;2.77;;;1.73;;
13319;SDS011;59599;47.608;12.190;2022-09-12T06:41:08;6.47;;;2.50;;
13319;SDS011;59599;47.608;12.190;2022-09-12T06:43:38;2.83;;;2.47;;
13319;SDS011;59599;47.608;12.190;2022-09-12T06:46:05;3.37;;;2.30;;
13319;SDS011;59599;47.608;12.190;2022-09-12T06:48:31;2.57;;;2.23;;
13319;SDS011;59599;47.608;12.190;2022-09-12T06:51:08;3.03;;;2.57;;
13319;SDS011;59599;47.608;12.190;2022-09-12T06:53:35;5.10;;;2.17;;
13319;SDS011;59599;47.608;12.190;2022-09-12T06:56:02;4.70;;;2.57;;
13319;SDS011;59599;47.608;12.190;2022-09-12T06:58:31;2.40;;;2.20;;
13319;SDS011;59599;47.608;12.190;2022-09-12T07:01:01;2.80;;;2.20;;
13319;SDS011;59599;47.608;12.190;2022-09-12T07:03:27;5.77;;;2.00;;
13319;SDS011;59599;47.608;12.190;2022-09-12T07:05:53;2.67;;;2.27;;
13319;SDS011;59599;47.608;12.190;2022-09-12T07:08:19;2.97;;;1.80;;
13319;SDS011;59599;47.608;12.190;2022-09-12T07:10:45;2.33;;;1.93;;
13319;SDS011;59599;47.608;12.190;2022-09-12T07:13:11;6.43;;;1.67;;
13319;SDS011;59599;47.608;12.190;2022-09-12T07:15:38;1.80;;;1.60;;
13319;SDS011;59599;47.608;12.190;2022-09-12T07:18:04;2.30;;;2.10;;
13319;SDS011;59599;47.608;12.190;2022-09-12T07:20:30;3.33;;;2.30;;
13319;SDS011;59599;47.608;12.190;2022-09-12T07:22:58;4.87;;;3.30;;
13319;SDS011;59599;47.608;12.190;2022-09-12T07:25:24;2.23;;;1.80;;
13319;SDS011;59599;47.608;12.190;2022-09-12T07:27:51;3.10;;;2.37;;
13319;SDS011;59599;47.608;12.190;2022-09-12T07:30:17;3.37;;;2.23;;
13319;SDS011;59599;47.608;12.190;2022-09-12T07:32:42;3.00;;;2.07;;
13319;SDS011;59599;47.608;12.190;2022-09-12T07:35:08;2.03;;;1.83;;
13319;SDS011;59599;47.608;12.190;2022-09-12T07:37:35;2.43;;;2.17;;
13319;SDS011;59599;47.608;12.190;2022-09-12T07:40:00;5.07;;;2.40;;
13319;SDS011;59599;47.608;12.190;2022-09-12T07:42:26;8.40;;;2.20;;
13319;SDS011;59599;47.608;12.190;2022-09-12T07:44:52;1.93;;;1.80;;
13319;SDS011;59599;47.608;12.190;2022-09-12T07:47:18;1.93;;;1.80;;
13319;SDS011;59599;47.608;12.190;2022-09-12T07:49:43;1.80;;;1.70;;
13319;SDS011;59599;47.608;12.190;2022-09-12T07:52:09;2.60;;;1.83;;
13319;SDS011;59599;47.608;12.190;2022-09-12T07:54:35;3.07;;;2.00;;
13319;SDS011;59599;47.608;12.190;2022-09-12T07:57:01;3.60;;;2.08;;
13319;SDS011;59599;47.608;12.190;2022-09-12T07:59:26;1.88;;;1.70;;
13319;SDS011;59599;47.608;12.190;2022-09-12T08:01:52;1.90;;;1.70;;
13319;SDS011;59599;47.608;12.190;2022-09-12T08:04:18;2.78;;;1.20;;
13319;SDS011;59599;47.608;12.190;2022-09-12T08:06:45;2.22;;;1.10;;
13319;SDS011;59599;47.608;12.190;2022-09-12T08:09:10;4.28;;;1.42;;
13319;SDS011;59599;47.608;12.190;2022-09-12T08:11:36;2.33;;;1.40;;
13319;SDS011;59599;47.608;12.190;2022-09-12T08:14:02;1.42;;;1.30;;
13319;SDS011;59599;47.608;12.190;2022-09-12T08:16:29;1.20;;;1.10;;
13319;SDS011;59599;47.608;12.190;2022-09-12T08:18:56;2.85;;;1.60;;
13319;SDS011;59599;47.608;12.190;2022-09-12T08:21:23;1.50;;;1.40;;
13319;SDS011;59599;47.608;12.190;2022-09-12T08:23:51;2.83;;;1.20;;
13319;SDS011;59599;47.608;12.190;2022-09-12T08:26:21;1.52;;;1.30;;
13319;SDS011;59599;47.608;12.190;2022-09-12T08:28:48;2.08;;;1.35;;
13319;SDS011;59599;47.608;12.190;2022-09-12T08:31:15;3.03;;;1.15;;
13319;SDS011;59599;47.608;12.190;2022-09-12T08:33:42;2.45;;;1.30;;
13319;SDS011;59599;47.608;12.190;2022-09-12T08:36:09;2.17;;;1.30;;
13319;SDS011;59599;47.608;12.190;2022-09-12T08:38:38;1.30;;;1.20;;
13319;SDS011;59599;47.608;12.190;2022-09-12T08:43:52;3.00;;;1.30;;
13319;SDS011;59599;47.608;12.190;2022-09-12T08:52:22;0.77;;;0.73;;
13319;SDS011;59599;47.608;12.190;2022-09-12T08:54:53;1.08;;;1.02;;
13319;SDS011;59599;47.608;12.190;2022-09-12T08:57:20;1.10;;;1.00;;
13319;SDS011;59599;47.608;12.190;2022-09-12T08:59:46;1.98;;;1.17;;
13319;SDS011;59599;47.608;12.190;2022-09-12T09:04:50;1.00;;;0.90;;
13319;SDS011;59599;47.608;12.190;2022-09-12T09:07:25;2.15;;;1.10;;
13319;SDS011;59599;47.608;12.190;2022-09-12T09:10:22;3.70;;;1.23;;
13319;SDS011;59599;47.608;12.190;2022-09-12T09:18:38;1.00;;;0.95;;
13319;SDS011;59599;47.608;12.190;2022-09-12T09:21:07;2.30;;;1.00;;
13319;SDS011;59599;47.608;12.190;2022-09-12T09:23:47;1.10;;;0.82;;
13319;SDS011;59599;47.608;12.190;2022-09-12T09:26:22;1.23;;;1.13;;
13319;SDS011;59599;47.608;12.190;2022-09-12T09:28:57;1.10;;;0.73;;
13319;SDS011;59599;47.608;12.190;2022-09-12T09:31:43;1.92;;;0.93;;
13319;SDS011;59599;47.608;12.190;2022-09-12T09:34:18;1.10;;;0.80;;
13319;SDS011;59599;47.608;12.190;2022-09-12T09:36:48;2.65;;;1.10;;
13319;SDS011;59599;47.608;12.190;2022-09-12T09:39:18;1.33;;;0.90;;
13319;SDS011;59599;47.608;12.190;2022-09-12T09:44:50;1.33;;;0.90;;
13319;SDS011;59599;47.608;12.190;2022-09-12T09:47:17;1.20;;;1.10;;
13319;SDS011;59599;47.608;12.190;2022-09-12T09:49:43;1.52;;;1.00;;
13319;SDS011;59599;47.608;12.190;2022-09-12T09:52:10;1.30;;;1.00;;
13319;SDS011;59599;47.608;12.190;2022-09-12T09:54:41;1.75;;;0.90;;
13319;SDS011;59599;47.608;12.190;2022-09-12T09:57:36;1.38;;;1.10;;
13319;SDS011;59599;47.608;12.190;2022-09-12T10:00:26;1.35;;;1.00;;
13319;SDS011;59599;47.608;12.190;2022-09-12T10:05:43;1.50;;;1.00;;
13319;SDS011;59599;47.608;12.190;2022-09-12T10:10:58;1.80;;;1.23;;
13319;SDS011;59599;47.608;12.190;2022-09-12T10:13:35;3.15;;;1.10;;
13319;SDS011;59599;47.608;12.190;2022-09-12T10:16:04;0.90;;;0.90;;
13319;SDS011;59599;47.608;12.190;2022-09-12T10:18:52;1.65;;;0.95;;
13319;SDS011;59599;47.608;12.190;2022-09-12T10:21:23;1.20;;;1.05;;
13319;SDS011;59599;47.608;12.190;2022-09-12T10:26:47;1.10;;;1.00;;
13319;SDS011;59599;47.608;12.190;2022-09-12T10:29:27;1.70;;;1.00;;
13319;SDS011;59599;47.608;12.190;2022-09-12T10:32:00;1.05;;;0.90;;
13319;SDS011;59599;47.608;12.190;2022-09-12T10:34:29;2.20;;;0.90;;
13319;SDS011;59599;47.608;12.190;2022-09-12T10:37:01;0.95;;;0.90;;
13319;SDS011;59599;47.608;12.190;2022-09-12T10:39:29;1.85;;;1.00;;
13319;SDS011;59599;47.608;12.190;2022-09-12T10:41:57;0.95;;;0.90;;
13319;SDS011;59599;47.608;12.190;2022-09-12T10:44:24;2.33;;;0.90;;
13319;SDS011;59599;47.608;12.190;2022-09-12T10:46:51;1.00;;;0.80;;
13319;SDS011;59599;47.608;12.190;2022-09-12T10:49:19;1.85;;;0.75;;
13319;SDS011;59599;47.608;12.190;2022-09-12T10:51:51;1.90;;;1.10;;
13319;SDS011;59599;47.608;12.190;2022-09-12T10:54:19;1.52;;;1.00;;
13319;SDS011;59599;47.608;12.190;2022-09-12T10:56:51;4.20;;;1.10;;
13319;SDS011;59599;47.608;12.190;2022-09-12T11:02:27;1.08;;;1.00;;
13319;SDS011;59599;47.608;12.190;2022-09-12T11:07:48;1.40;;;1.10;;
13319;SDS011;59599;47.608;12.190;2022-09-12T11:10:43;1.38;;;1.27;;
13319;SDS011;59599;47.608;12.190;2022-09-12T11:13:37;1.92;;;1.40;;
13319;SDS011;59599;47.608;12.190;2022-09-12T11:24:33;1.77;;;1.00;;
13319;SDS011;59599;47.608;12.190;2022-09-12T11:27:09;1.58;;;1.10;;
13319;SDS011;59599;47.608;12.190;2022-09-12T11:29:58;2.15;;;1.30;;
13319;SDS011;59599;47.608;12.190;2022-09-12T11:32:31;1.83;;;0.93;;
13319;SDS011;59599;47.608;12.190;2022-09-12T11:35:29;1.20;;;1.10;;
13319;SDS011;59599;47.608;12.190;2022-09-12T11:43:24;2.58;;;1.10;;
13319;SDS011;59599;47.608;12.190;2022-09-12T11:45:58;2.25;;;0.90;;
13319;SDS011;59599;47.608;12.190;2022-09-12T11:51:15;2.80;;;1.10;;
13319;SDS011;59599;47.608;12.190;2022-09-12T11:56:54;0.90;;;0.90;;
13319;SDS011;59599;47.608;12.190;2022-09-12T11:59:30;1.42;;;1.08;;
13319;SDS011;59599;47.608;12.190;2022-09-12T12:02:18;1.05;;;0.90;;
13319;SDS011;59599;47.608;12.190;2022-09-12T12:07:40;1.90;;;1.00;;
13319;SDS011;59599;47.608;12.190;2022-09-12T12:10:20;0.90;;;0.90;;
13319;SDS011;59599;47.608;12.190;2022-09-12T12:12:49;1.42;;;0.75;;
13319;SDS011;59599;47.608;12.190;2022-09-12T12:15:16;0.68;;;0.68;;
13319;SDS011;59599;47.608;12.190;2022-09-12T12:17:42;5.22;;;0.80;;
13319;SDS011;59599;47.608;12.190;2022-09-12T12:20:14;0.70;;;0.70;;
13319;SDS011;59599;47.608;12.190;2022-09-12T12:22:51;0.85;;;0.57;;
13319;SDS011;59599;47.608;12.190;2022-09-12T12:27:54;1.42;;;0.77;;
13319;SDS011;59599;47.608;12.190;2022-09-12T12:38:02;3.53;;;1.48;;
13319;SDS011;59599;47.608;12.190;2022-09-12T12:40:29;1.25;;;1.05;;
13319;SDS011;59599;47.608;12.190;2022-09-12T12:42:57;1.85;;;1.30;;
13319;SDS011;59599;47.608;12.190;2022-09-12T12:47:53;1.40;;;0.90;;
13319;SDS011;59599;47.608;12.190;2022-09-12T12:50:22;2.10;;;0.90;;
13319;SDS011;59599;47.608;12.190;2022-09-12T12:52:51;1.85;;;1.00;;
13319;SDS011;59599;47.608;12.190;2022-09-12T12:55:30;1.40;;;1.00;;
13319;SDS011;59599;47.608;12.190;2022-09-12T12:58:02;2.00;;;0.73;;
13319;SDS011;59599;47.608;12.190;2022-09-12T13:00:31;1.10;;;0.82;;
13319;SDS011;59599;47.608;12.190;2022-09-12T13:05:46;3.17;;;1.02;;
13319;SDS011;59599;47.608;12.190;2022-09-12T13:10:50;1.40;;;1.00;;
13319;SDS011;59599;47.608;12.190;2022-09-12T13:13:33;1.00;;;0.80;;
13319;SDS011;59599;47.608;12.190;2022-09-12T13:19:01;1.05;;;0.98;;
13319;SDS011;59599;47.608;12.190;2022-09-12T13:21:38;1.48;;;1.02;;
13319;SDS011;59599;47.608;12.190;2022-09-12T13:24:19;1.83;;;1.10;;
13319;SDS011;59599;47.608;12.190;2022-09-12T13:26:46;1.92;;;1.10;;
13319;SDS011;59599;47.608;12.190;2022-09-12T13:29:19;0.95;;;0.95;;
13319;SDS011;59599;47.608;12.190;2022-09-12T13:31:50;0.98;;;0.88;;
13319;SDS011;59599;47.608;12.190;2022-09-12T13:34:28;2.47;;;0.98;;
13319;SDS011;59599;47.608;12.190;2022-09-12T13:39:47;3.90;;;1.30;;
13319;SDS011;59599;47.608;12.190;2022-09-12T13:45:02;1.60;;;1.00;;
13319;SDS011;59599;47.608;12.190;2022-09-12T13:47:33;1.17;;;0.80;;
13319;SDS011;59599;47.608;12.190;2022-09-12T13:50:03;1.17;;;1.05;;
13319;SDS011;59599;47.608;12.190;2022-09-12T13:52:32;1.70;;;1.00;;
13319;SDS011;59599;47.608;12.190;2022-09-12T13:54:59;1.17;;;0.80;;
13319;SDS011;59599;47.608;12.190;2022-09-12T13:59:57;3.25;;;1.08;;
13319;SDS011;59599;47.608;12.190;2022-09-12T14:02:26;0.88;;;0.88;;
13319;SDS011;59599;47.608;12.190;2022-09-12T14:04:53;1.23;;;1.00;;
13319;SDS011;59599;47.608;12.190;2022-09-12T14:07:38;1.00;;;0.90;;
13319;SDS011;59599;47.608;12.190;2022-09-12T14:10:14;2.65;;;1.00;;
13319;SDS011;59599;47.608;12.190;2022-09-12T14:12:46;1.65;;;1.20;;
13319;SDS011;59599;47.608;12.190;2022-09-12T14:15:18;3.10;;;1.15;;
13319;SDS011;59599;47.608;12.190;2022-09-12T14:17:50;2.72;;;1.08;;
13319;SDS011;59599;47.608;12.190;2022-09-12T14:20:19;0.80;;;0.80;;
13319;SDS011;59599;47.608;12.190;2022-09-12T14:22:47;2.95;;;1.30;;
13319;SDS011;59599;47.608;12.190;2022-09-12T14:25:21;1.58;;;1.10;;
13319;SDS011;59599;47.608;12.190;2022-09-12T14:27:52;1.38;;;1.25;;
13319;SDS011;59599;47.608;12.190;2022-09-12T14:30:24;1.35;;;0.75;;
13319;SDS011;59599;47.608;12.190;2022-09-12T14:33:28;1.63;;;0.90;;
13319;SDS011;59599;47.608;12.190;2022-09-12T14:35:50;2.65;;;1.00;;
13319;SDS011;59599;47.608;12.190;2022-09-12T14:38:33;2.10;;;1.05;;
13319;SDS011;59599;47.608;12.190;2022-09-12T14:41:03;0.90;;;0.85;;
13319;SDS011;59599;47.608;12.190;2022-09-12T14:43:32;1.10;;;1.00;;
13319;SDS011;59599;47.608;12.190;2022-09-12T14:46:00;3.53;;;0.90;;
13319;SDS011;59599;47.608;12.190;2022-09-12T14:48:29;0.98;;;0.80;;
13319;SDS011;59599;47.608;12.190;2022-09-12T14:50:58;1.15;;;0.70;;
13319;SDS011;59599;47.608;12.190;2022-09-12T14:53:34;1.13;;;1.00;;
13319;SDS011;59599;47.608;12.190;2022-09-12T14:56:06;2.25;;;1.08;;
13319;SDS011;59599;47.608;12.190;2022-09-12T14:58:34;1.08;;;0.80;;
13319;SDS011;59599;47.608;12.190;2022-09-12T15:05:57;1.13;;;0.95;;
13319;SDS011;59599;47.608;12.190;2022-09-12T15:08:24;1.63;;;0.95;;
13319;SDS011;59599;47.608;12.190;2022-09-12T15:10:50;0.70;;;0.70;;
13319;SDS011;59599;47.608;12.190;2022-09-12T15:13:17;1.35;;;0.82;;
13319;SDS011;59599;47.608;12.190;2022-09-12T15:15:47;1.20;;;0.90;;
13319;SDS011;59599;47.608;12.190;2022-09-12T15:18:23;3.15;;;0.90;;
13319;SDS011;59599;47.608;12.190;2022-09-12T15:20:51;1.20;;;0.93;;
13319;SDS011;59599;47.608;12.190;2022-09-12T15:26:02;2.08;;;0.80;;
13319;SDS011;59599;47.608;12.190;2022-09-12T15:28:29;0.70;;;0.70;;
13319;SDS011;59599;47.608;12.190;2022-09-12T15:30:55;1.33;;;0.80;;
13319;SDS011;59599;47.608;12.190;2022-09-12T15:33:22;0.77;;;0.77;;
13319;SDS011;59599;47.608;12.190;2022-09-12T15:35:49;1.38;;;0.80;;
13319;SDS011;59599;47.608;12.190;2022-09-12T15:38:16;1.02;;;0.93;;
13319;SDS011;59599;47.608;12.190;2022-09-12T15:40:42;1.00;;;0.90;;
13319;SDS011;59599;47.608;12.190;2022-09-12T15:43:11;1.02;;;0.75;;
13319;SDS011;59599;47.608;12.190;2022-09-12T15:45:37;1.45;;;0.80;;
13319;SDS011;59599;47.608;12.190;2022-09-12T15:48:05;1.02;;;0.77;;
13319;SDS011;59599;47.608;12.190;2022-09-12T15:50:31;1.27;;;0.90;;
13319;SDS011;59599;47.608;12.190;2022-09-12T15:52:57;0.80;;;0.80;;
13319;SDS011;59599;47.608;12.190;2022-09-12T15:55:24;1.75;;;0.80;;
13319;SDS011;59599;47.608;12.190;2022-09-12T15:57:54;1.30;;;0.95;;
13319;SDS011;59599;47.608;12.190;2022-09-12T16:00:19;0.82;;;0.82;;
13319;SDS011;59599;47.608;12.190;2022-09-12T16:02:46;1.10;;;1.00;;
13319;SDS011;59599;47.608;12.190;2022-09-12T16:05:15;0.95;;;0.70;;
13319;SDS011;59599;47.608;12.190;2022-09-12T16:07:43;1.45;;;0.77;;
13319;SDS011;59599;47.608;12.190;2022-09-12T16:10:16;1.00;;;0.80;;
13319;SDS011;59599;47.608;12.190;2022-09-12T16:12:43;1.17;;;0.70;;
13319;SDS011;59599;47.608;12.190;2022-09-12T16:15:13;1.33;;;0.85;;
13319;SDS011;59599;47.608;12.190;2022-09-12T16:17:41;0.90;;;0.90;;
13319;SDS011;59599;47.608;12.190;2022-09-12T16:20:07;0.88;;;0.88;;
13319;SDS011;59599;47.608;12.190;2022-09-12T16:22:33;1.10;;;0.80;;
13319;SDS011;59599;47.608;12.190;2022-09-12T16:24:59;2.15;;;1.02;;
13319;SDS011;59599;47.608;12.190;2022-09-12T16:27:25;2.47;;;1.30;;
13319;SDS011;59599;47.608;12.190;2022-09-12T16:29:51;1.60;;;1.10;;
13319;SDS011;59599;47.608;12.190;2022-09-12T16:32:16;3.42;;;0.88;;
13319;SDS011;59599;47.608;12.190;2022-09-12T16:34:42;1.45;;;1.00;;
13319;SDS011;59599;47.608;12.190;2022-09-12T16:37:07;1.48;;;1.02;;
13319;SDS011;59599;47.608;12.190;2022-09-12T16:39:33;3.13;;;0.90;;
13319;SDS011;59599;47.608;12.190;2022-09-12T16:41:59;2.70;;;1.23;;
13319;SDS011;59599;47.608;12.190;2022-09-12T16:44:25;3.40;;;1.25;;
13319;SDS011;59599;47.608;12.190;2022-09-12T16:46:51;1.33;;;1.00;;
13319;SDS011;59599;47.608;12.190;2022-09-12T16:49:17;1.40;;;0.98;;
13319;SDS011;59599;47.608;12.190;2022-09-12T16:51:43;1.35;;;0.90;;
13319;SDS011;59599;47.608;12.190;2022-09-12T16:54:11;1.38;;;1.00;;
13319;SDS011;59599;47.608;12.190;2022-09-12T16:56:38;1.40;;;1.00;;
13319;SDS011;59599;47.608;12.190;2022-09-12T16:59:04;0.80;;;0.80;;
13319;SDS011;59599;47.608;12.190;2022-09-12T17:01:30;1.02;;;0.90;;
13319;SDS011;59599;47.608;12.190;2022-09-12T17:03:58;2.28;;;0.90;;
13319;SDS011;59599;47.608;12.190;2022-09-12T17:06:24;5.85;;;1.23;;
13319;SDS011;59599;47.608;12.190;2022-09-12T17:08:52;1.77;;;1.00;;
13319;SDS011;59599;47.608;12.190;2022-09-12T17:11:19;1.52;;;1.23;;
13319;SDS011;59599;47.608;12.190;2022-09-12T17:13:47;1.40;;;1.20;;
13319;SDS011;59599;47.608;12.190;2022-09-12T17:16:14;2.95;;;1.10;;
13319;SDS011;59599;47.608;12.190;2022-09-12T17:18:39;1.63;;;1.02;;
13319;SDS011;59599;47.608;12.190;2022-09-12T17:21:05;3.10;;;1.15;;
13319;SDS011;59599;47.608;12.190;2022-09-12T17:23:32;1.90;;;1.20;;
13319;SDS011;59599;47.608;12.190;2022-09-12T17:25:57;2.65;;;1.10;;
13319;SDS011;59599;47.608;12.190;2022-09-12T17:28:23;2.45;;;1.10;;
13319;SDS011;59599;47.608;12.190;2022-09-12T17:31:02;1.20;;;1.10;;
13319;SDS011;59599;47.608;12.190;2022-09-12T17:33:30;3.20;;;1.50;;
13319;SDS011;59599;47.608;12.190;2022-09-12T17:36:15;3.92;;;1.83;;
13319;SDS011;59599;47.608;12.190;2022-09-12T17:38:42;2.10;;;1.90;;
13319;SDS011;59599;47.608;12.190;2022-09-12T17:41:13;4.18;;;2.05;;
13319;SDS011;59599;47.608;12.190;2022-09-12T17:43:41;2.05;;;1.60;;
13319;SDS011;59599;47.608;12.190;2022-09-12T17:46:08;1.95;;;1.70;;
13319;SDS011;59599;47.608;12.190;2022-09-12T17:48:34;2.92;;;1.70;;
13319;SDS011;59599;47.608;12.190;2022-09-12T17:51:05;1.73;;;1.63;;
13319;SDS011;59599;47.608;12.190;2022-09-12T17:53:32;4.20;;;1.83;;
13319;SDS011;59599;47.608;12.190;2022-09-12T17:56:02;2.10;;;1.90;;
13319;SDS011;59599;47.608;12.190;2022-09-12T17:58:28;1.83;;;1.73;;
13319;SDS011;59599;47.608;12.190;2022-09-12T18:01:04;2.00;;;1.80;;
13319;SDS011;59599;47.608;12.190;2022-09-12T18:03:56;2.20;;;1.88;;
13319;SDS011;59599;47.608;12.190;2022-09-12T18:06:24;4.90;;;1.80;;
13319;SDS011;59599;47.608;12.190;2022-09-12T18:08:54;3.08;;;2.42;;
13319;SDS011;59599;47.608;12.190;2022-09-12T18:11:20;2.72;;;2.25;;
13319;SDS011;59599;47.608;12.190;2022-09-12T18:13:46;4.00;;;2.03;;
13319;SDS011;59599;47.608;12.190;2022-09-12T18:16:12;2.92;;;2.13;;
13319;SDS011;59599;47.608;12.190;2022-09-12T18:18:38;3.00;;;2.10;;
13319;SDS011;59599;47.608;12.190;2022-09-12T18:21:05;2.83;;;1.83;;
13319;SDS011;59599;47.608;12.190;2022-09-12T18:23:32;3.10;;;2.00;;
13319;SDS011;59599;47.608;12.190;2022-09-12T18:25:58;1.70;;;1.55;;
13319;SDS011;59599;47.608;12.190;2022-09-12T18:28:25;3.38;;;2.08;;
13319;SDS011;59599;47.608;12.190;2022-09-12T18:30:51;2.97;;;2.30;;
13319;SDS011;59599;47.608;12.190;2022-09-12T18:33:17;3.35;;;1.90;;
13319;SDS011;59599;47.608;12.190;2022-09-12T18:35:43;3.22;;;2.28;;
13319;SDS011;59599;47.608;12.190;2022-09-12T18:38:09;6.65;;;2.60;;
13319;SDS011;59599;47.608;12.190;2022-09-12T18:40:35;6.95;;;3.00;;
13319;SDS011;59599;47.608;12.190;2022-09-12T18:43:01;2.90;;;2.25;;
13319;SDS011;59599;47.608;12.190;2022-09-12T18:45:27;3.03;;;2.13;;
13319;SDS011;59599;47.608;12.190;2022-09-12T18:47:54;2.17;;;1.90;;
13319;SDS011;59599;47.608;12.190;2022-09-12T18:50:19;4.00;;;2.03;;
13319;SDS011;59599;47.608;12.190;2022-09-12T18:52:47;2.30;;;2.00;;
13319;SDS011;59599;47.608;12.190;2022-09-12T18:55:13;3.05;;;2.20;;
13319;SDS011;59599;47.608;12.190;2022-09-12T18:57:38;4.18;;;2.20;;
13319;SDS011;59599;47.608;12.190;2022-09-12T19:00:06;4.10;;;2.30;;
13319;SDS011;59599;47.608;12.190;2022-09-12T19:02:32;4.18;;;2.15;;
13319;SDS011;59599;47.608;12.190;2022-09-12T19:04:57;3.22;;;2.13;;
13319;SDS011;59599;47.608;12.190;2022-09-12T19:07:23;4.38;;;1.92;;
13319;SDS011;59599;47.608;12.190;2022-09-12T19:09:49;2.30;;;2.10;;
13319;SDS011;59599;47.608;12.190;2022-09-12T19:12:15;5.28;;;2.20;;
13319;SDS011;59599;47.608;12.190;2022-09-12T19:14:41;3.42;;;2.28;;
13319;SDS011;59599;47.608;12.190;2022-09-12T19:17:07;4.13;;;2.00;;
13319;SDS011;59599;47.608;12.190;2022-09-12T19:19:34;2.75;;;2.10;;
13319;SDS011;59599;47.608;12.190;2022-09-12T19:21:59;6.97;;;2.30;;
13319;SDS011;59599;47.608;12.190;2022-09-12T19:24:25;2.95;;;2.17;;
13319;SDS011;59599;47.608;12.190;2022-09-12T19:26:51;2.15;;;1.95;;
13319;SDS011;59599;47.608;12.190;2022-09-12T19:29:17;2.65;;;1.92;;
13319;SDS011;59599;47.608;12.190;2022-09-12T19:31:43;4.68;;;2.03;;
13319;SDS011;59599;47.608;12.190;2022-09-12T19:34:09;3.63;;;2.00;;
13319;SDS011;59599;47.608;12.190;2022-09-12T19:36:35;7.28;;;2.20;;
13319;SDS011;59599;47.608;12.190;2022-09-12T19:39:03;2.08;;;1.80;;
13319;SDS011;59599;47.608;12.190;2022-09-12T19:41:29;2.72;;;2.20;;
13319;SDS011;59599;47.608;12.190;2022-09-12T19:43:55;3.85;;;2.17;;
13319;SDS011;59599;47.608;12.190;2022-09-12T19:46:21;3.47;;;1.70;;
13319;SDS011;59599;47.608;12.190;2022-09-12T19:48:48;3.92;;;1.83;;
13319;SDS011;59599;47.608;12.190;2022-09-12T19:51:15;5.30;;;2.00;;
13319;SDS011;59599;47.608;12.190;2022-09-12T19:53:43;5.25;;;1.85;;
13319;SDS011;59599;47.608;12.190;2022-09-12T19:56:09;3.38;;;1.80;;
13319;SDS011;59599;47.608;12.190;2022-09-12T19:58:37;2.67;;;1.70;;
13319;SDS011;59599;47.608;12.190;2022-09-12T20:01:08;4.65;;;2.00;;
13319;SDS011;59599;47.608;12.190;2022-09-12T20:03:40;1.60;;;1.50;;
13319;SDS011;59599;47.608;12.190;2022-09-12T20:06:07;2.45;;;1.83;;
13319;SDS011;59599;47.608;12.190;2022-09-12T20:08:34;2.08;;;1.70;;
13319;SDS011;59599;47.608;12.190;2022-09-12T20:11:01;2.80;;;1.70;;
13319;SDS011;59599;47.608;12.190;2022-09-12T20:13:27;2.17;;;1.85;;
13319;SDS011;59599;47.608;12.190;2022-09-12T20:15:52;2.80;;;1.77;;
13319;SDS011;59599;47.608;12.190;2022-09-12T20:18:18;6.03;;;2.20;;